Time;durP1;ratioP1;P1;durP2;ratioP2;P2;SDS_P1;SDS_P2;PMS_P1;PMS_P2;Temp;Humidity;BMP_temperature;BMP_pressure;BME280_temperature;BME280_humidity;BME280_pressure;Samples;Min_cycle;Max_cycle;Signal;HPM_P1;HPM_P2
2022/11/05 10:06:39;;;;;;;1.43;1.10;;;7.50;99.90;;;;;;5158500;27;20272;-82
2022/11/05 10:09:21;;;;;;;1.27;1.07;;;7.60;99.90;;;;;;5142890;27;20202;-82
2022/11/05 10:12:09;;;;;;;1.20;0.90;;;7.80;99.90;;;;;;5162438;27;20606;-81
2022/11/05 10:15:01;;;;;;;0.70;0.70;;;8.10;99.90;;;;;;5140232;28;20682;-81
2022/11/05 10:17:28;;;;;;;0.70;0.70;;;8.40;99.90;;;;;;5109368;28;20214;-82
2022/11/05 10:20:36;;;;;;;0.90;0.60;;;8.20;99.90;;;;;;5116325;28;20200;-82
2022/11/05 10:23:13;;;;;;;1.00;0.80;;;8.10;99.90;;;;;;5085068;28;20224;-81
2022/11/05 10:25:44;;;;;;;1.43;0.80;;;8.10;99.90;;;;;;5120994;28;20187;-82
2022/11/05 10:28:18;;;;;;;0.60;0.57;;;8.20;99.90;;;;;;5112828;28;20182;-81
2022/11/05 10:30:46;;;;;;;0.90;0.90;;;8.10;99.90;;;;;;5129506;28;20201;-80
2022/11/05 10:33:21;;;;;;;0.53;0.53;;;8.10;99.90;;;;;;5110437;28;20205;-82
2022/11/05 10:35:54;;;;;;;1.33;0.73;;;8.20;99.90;;;;;;5115400;28;20187;-81
2022/11/05 10:38:20;;;;;;;0.60;0.60;;;8.10;99.90;;;;;;5099182;28;20163;-81
2022/11/05 10:41:00;;;;;;;0.57;0.50;;;7.80;99.90;;;;;;5081064;28;20243;-81
2022/11/05 10:43:43;;;;;;;3.30;3.00;;;7.60;99.90;;;;;;5109973;28;20292;-81
2022/11/05 10:46:28;;;;;;;11.67;6.73;;;7.40;99.90;;;;;;5101874;28;20185;-83
2022/11/05 10:49:26;;;;;;;1.20;1.10;;;7.30;99.90;;;;;;5143135;27;20185;-81
2022/11/05 10:51:56;;;;;;;1.80;1.30;;;7.30;99.90;;;;;;5111092;28;20185;-81
2022/11/05 10:54:25;;;;;;;8.07;2.10;;;7.20;99.90;;;;;;5099703;28;20548;-81
2022/11/05 10:56:50;;;;;;;2.00;1.80;;;7.30;99.90;;;;;;5100765;28;20176;-81
2022/11/05 10:59:21;;;;;;;17.90;9.27;;;7.40;99.90;;;;;;5113385;28;20176;-82
2022/11/05 11:02:02;;;;;;;14.37;7.40;;;7.50;99.90;;;;;;5110417;28;20187;-81
2022/11/05 11:04:29;;;;;;;3.83;2.30;;;7.70;99.90;;;;;;5113028;28;20216;-82
2022/11/05 11:06:58;;;;;;;35.47;13.73;;;7.80;99.90;;;;;;5113987;28;20644;-82
2022/11/05 11:09:34;;;;;;;113.40;34.87;;;7.90;99.90;;;;;;5111731;28;20635;-80
2022/11/05 11:12:02;;;;;;;54.90;18.97;;;7.90;99.90;;;;;;5096751;28;20182;-79
2022/11/05 11:14:29;;;;;;;39.53;14.97;;;7.90;99.90;;;;;;5100549;28;20232;-80
2022/11/05 11:17:16;;;;;;;5.40;3.37;;;8.00;99.90;;;;;;5090551;28;20176;-78
2022/11/05 11:19:42;;;;;;;7.57;4.67;;;8.10;99.90;;;;;;5104425;28;20168;-80
2022/11/05 11:22:09;;;;;;;2.83;2.00;;;8.00;99.90;;;;;;5082628;28;20182;-81
2022/11/05 11:24:53;;;;;;;8.70;5.47;;;8.00;99.90;;;;;;5086311;28;20210;-80
2022/11/05 11:27:25;;;;;;;5.57;3.57;;;8.10;99.90;;;;;;5110355;28;20184;-80
2022/11/05 11:29:59;;;;;;;6.50;3.50;;;8.10;99.90;;;;;;5100716;28;20257;-80
2022/11/05 11:32:35;;;;;;;10.63;5.20;;;8.20;99.90;;;;;;5104269;28;20277;-80
2022/11/05 11:35:01;;;;;;;38.43;18.43;;;8.20;99.90;;;;;;5102143;28;20187;-81
2022/11/05 11:37:32;;;;;;;81.00;38.87;;;8.20;99.90;;;;;;5085779;28;20179;-81
2022/11/05 11:40:24;;;;;;;23.73;13.33;;;8.10;99.90;;;;;;5082543;28;20181;-81
2022/11/05 11:42:57;;;;;;;11.83;7.33;;;8.10;99.90;;;;;;5099148;28;20203;-82
2022/11/05 11:45:31;;;;;;;52.40;28.37;;;8.00;99.90;;;;;;5084190;28;20204;-82
2022/11/05 11:48:01;;;;;;;19.23;11.40;;;7.90;99.90;;;;;;5116879;28;20206;-81
2022/11/05 11:50:40;;;;;;;26.90;14.07;;;7.80;99.90;;;;;;5106836;28;20187;-81
2022/11/05 11:53:20;;;;;;;10.37;6.87;;;7.80;99.90;;;;;;5104425;28;20328;-82
2022/11/05 11:56:04;;;;;;;61.00;31.53;;;7.90;99.90;;;;;;5085814;28;20203;-82
2022/11/05 11:58:41;;;;;;;17.20;9.43;;;7.90;99.90;;;;;;5104363;28;20163;-83
2022/11/05 12:01:30;;;;;;;105.17;43.03;;;7.90;99.90;;;;;;5084619;28;20535;-82
2022/11/05 12:04:14;;;;;;;89.00;39.67;;;7.90;99.90;;;;;;5089273;28;20205;-81
2022/11/05 12:07:08;;;;;;;80.37;33.73;;;8.00;99.90;;;;;;5103583;28;20582;-84
2022/11/05 12:09:52;;;;;;;58.40;24.20;;;8.10;99.90;;;;;;5102721;28;20644;-81
2022/11/05 12:12:28;;;;;;;6.47;3.60;;;8.20;99.90;;;;;;5083572;28;20165;-81
2022/11/05 12:15:42;;;;;;;71.30;26.63;;;8.20;99.90;;;;;;5106404;28;20551;-81
